sensor_id;sensor_type;location;lat;lon;timestamp;pressure;altitude;pressure_sealevel;temperature;humidity
57594;BME280;43423;46.510;6.686;2023-11-21T00:01:36;96128.50;;;8.60;100.00
57594;BME280;43423;46.510;6.686;2023-11-21T00:04:02;96127.19;;;8.56;100.00
57594;BME280;43423;46.510;6.686;2023-11-21T00:06:27;96117.38;;;8.64;100.00
57594;BME280;43423;46.510;6.686;2023-11-21T00:08:53;96122.25;;;8.75;100.00
57594;BME280;43423;46.510;6.686;2023-11-21T00:11:18;96125.09;;;8.95;99.46
57594;BME280;43423;46.510;6.686;2023-11-21T00:13:44;96112.13;;;8.95;99.15
57594;BME280;43423;46.510;6.686;2023-11-21T00:16:10;96111.63;;;9.12;99.56
57594;BME280;43423;46.510;6.686;2023-11-21T00:18:36;96122.75;;;9.08;98.00
57594;BME280;43423;46.510;6.686;2023-11-21T00:21:02;96114.50;;;9.23;97.59
57594;BME280;43423;46.510;6.686;2023-11-21T00:23:29;96117.38;;;9.14;96.96
57594;BME280;43423;46.510;6.686;2023-11-21T00:25:54;96116.78;;;9.25;95.61
57594;BME280;43423;46.510;6.686;2023-11-21T00:28:20;96111.41;;;9.15;95.83
57594;BME280;43423;46.510;6.686;2023-11-21T00:30:45;96099.84;;;9.26;95.53
57594;BME280;43423;46.510;6.686;2023-11-21T00:33:11;96101.59;;;9.09;96.51
57594;BME280;43423;46.510;6.686;2023-11-21T00:35:37;96087.78;;;9.18;96.18
57594;BME280;43423;46.510;6.686;2023-11-21T00:38:03;96091.44;;;9.15;93.05
57594;BME280;43423;46.510;6.686;2023-11-21T00:40:28;96095.25;;;9.17;93.04
57594;BME280;43423;46.510;6.686;2023-11-21T00:42:54;96094.84;;;9.25;91.81
57594;BME280;43423;46.510;6.686;2023-11-21T00:45:21;96092.56;;;9.23;91.13
57594;BME280;43423;46.510;6.686;2023-11-21T00:47:47;96098.34;;;9.25;90.14
57594;BME280;43423;46.510;6.686;2023-11-21T00:50:12;96095.63;;;9.10;90.69
57594;BME280;43423;46.510;6.686;2023-11-21T00:52:38;96093.84;;;9.07;91.05
57594;BME280;43423;46.510;6.686;2023-11-21T00:55:05;96091.00;;;9.16;92.57
57594;BME280;43423;46.510;6.686;2023-11-21T00:57:33;96092.91;;;9.10;92.17
57594;BME280;43423;46.510;6.686;2023-11-21T00:59:59;96094.72;;;9.34;90.20
57594;BME280;43423;46.510;6.686;2023-11-21T01:02:24;96094.94;;;9.15;92.11
57594;BME280;43423;46.510;6.686;2023-11-21T01:04:51;96099.44;;;9.33;90.62
57594;BME280;43423;46.510;6.686;2023-11-21T01:07:16;96096.63;;;9.28;91.25
57594;BME280;43423;46.510;6.686;2023-11-21T01:09:46;96098.09;;;9.43;90.47
57594;BME280;43423;46.510;6.686;2023-11-21T01:12:11;96101.44;;;9.53;89.82
57594;BME280;43423;46.510;6.686;2023-11-21T01:14:37;96100.75;;;9.38;90.56
57594;BME280;43423;46.510;6.686;2023-11-21T01:17:03;96100.47;;;9.36;89.93
57594;BME280;43423;46.510;6.686;2023-11-21T01:19:30;96093.47;;;9.35;89.17
57594;BME280;43423;46.510;6.686;2023-11-21T01:21:55;96101.56;;;9.44;90.03
57594;BME280;43423;46.510;6.686;2023-11-21T01:24:23;96101.00;;;9.40;88.90
57594;BME280;43423;46.510;6.686;2023-11-21T01:26:49;96097.41;;;9.48;87.69
57594;BME280;43423;46.510;6.686;2023-11-21T01:29:14;96098.34;;;9.45;86.15
57594;BME280;43423;46.510;6.686;2023-11-21T01:31:40;96081.00;;;9.34;86.81
57594;BME280;43423;46.510;6.686;2023-11-21T01:34:06;96084.09;;;9.41;87.52
57594;BME280;43423;46.510;6.686;2023-11-21T01:36:32;96086.63;;;9.45;86.27
57594;BME280;43423;46.510;6.686;2023-11-21T01:38:58;96068.88;;;9.40;87.13
57594;BME280;43423;46.510;6.686;2023-11-21T01:41:27;96075.22;;;9.52;85.37
57594;BME280;43423;46.510;6.686;2023-11-21T01:43:56;96070.03;;;9.34;87.15
57594;BME280;43423;46.510;6.686;2023-11-21T01:46:22;96061.38;;;9.41;87.09
57594;BME280;43423;46.510;6.686;2023-11-21T01:48:49;96055.91;;;9.41;87.33
57594;BME280;43423;46.510;6.686;2023-11-21T01:51:15;96053.69;;;9.45;85.79
57594;BME280;43423;46.510;6.686;2023-11-21T01:53:41;96055.59;;;9.39;87.49
57594;BME280;43423;46.510;6.686;2023-11-21T01:56:08;96059.31;;;9.36;87.55
57594;BME280;43423;46.510;6.686;2023-11-21T01:58:35;96051.81;;;9.16;89.31
57594;BME280;43423;46.510;6.686;2023-11-21T02:01:01;96054.78;;;9.12;91.46
57594;BME280;43423;46.510;6.686;2023-11-21T02:03:27;96058.47;;;9.09;93.94
57594;BME280;43423;46.510;6.686;2023-11-21T02:05:53;96051.91;;;8.86;94.89
57594;BME280;43423;46.510;6.686;2023-11-21T02:08:19;96053.69;;;8.89;93.20
57594;BME280;43423;46.510;6.686;2023-11-21T02:10:45;96054.94;;;8.88;95.05
57594;BME280;43423;46.510;6.686;2023-11-21T02:13:11;96054.44;;;8.90;93.50
57594;BME280;43423;46.510;6.686;2023-11-21T02:15:37;96067.88;;;8.88;94.27
57594;BME280;43423;46.510;6.686;2023-11-21T02:18:04;96061.75;;;9.13;94.15
57594;BME280;43423;46.510;6.686;2023-11-21T02:20:32;96058.56;;;8.80;99.44
57594;BME280;43423;46.510;6.686;2023-11-21T02:23:00;96056.34;;;8.84;100.00
57594;BME280;43423;46.510;6.686;2023-11-21T02:25:31;96050.78;;;8.93;97.25
57594;BME280;43423;46.510;6.686;2023-11-21T02:27:58;96059.78;;;8.79;100.00
57594;BME280;43423;46.510;6.686;2023-11-21T02:30:25;96043.34;;;8.79;100.00
57594;BME280;43423;46.510;6.686;2023-11-21T02:32:51;96042.66;;;8.84;100.00
57594;BME280;43423;46.510;6.686;2023-11-21T02:35:19;96048.72;;;8.73;100.00
57594;BME280;43423;46.510;6.686;2023-11-21T02:37:47;96040.25;;;8.56;100.00
57594;BME280;43423;46.510;6.686;2023-11-21T02:40:12;96036.56;;;8.59;100.00
57594;BME280;43423;46.510;6.686;2023-11-21T02:42:39;96032.53;;;8.40;100.00
57594;BME280;43423;46.510;6.686;2023-11-21T02:45:06;96035.31;;;8.60;100.00
57594;BME280;43423;46.510;6.686;2023-11-21T02:47:32;96030.66;;;8.46;100.00
57594;BME280;43423;46.510;6.686;2023-11-21T02:49:59;96029.69;;;8.49;100.00
57594;BME280;43423;46.510;6.686;2023-11-21T02:52:24;96035.44;;;8.51;100.00
57594;BME280;43423;46.510;6.686;2023-11-21T02:54:50;96032.63;;;8.46;100.00
57594;BME280;43423;46.510;6.686;2023-11-21T02:57:16;96028.19;;;8.48;100.00
57594;BME280;43423;46.510;6.686;2023-11-21T02:59:42;96020.13;;;8.45;100.00
57594;BME280;43423;46.510;6.686;2023-11-21T03:02:08;96018.50;;;8.67;100.00
57594;BME280;43423;46.510;6.686;2023-11-21T03:04:34;96019.88;;;8.43;100.00
57594;BME280;43423;46.510;6.686;2023-11-21T03:07:00;96022.50;;;8.37;100.00
57594;BME280;43423;46.510;6.686;2023-11-21T03:09:26;96028.78;;;8.37;100.00
57594;BME280;43423;46.510;6.686;2023-11-21T03:11:53;96022.03;;;8.24;100.00
57594;BME280;43423;46.510;6.686;2023-11-21T03:14:19;96010.69;;;8.31;100.00
57594;BME280;43423;46.510;6.686;2023-11-21T03:16:44;96015.44;;;8.16;100.00
57594;BME280;43423;46.510;6.686;2023-11-21T03:19:11;96010.97;;;8.33;100.00
57594;BME280;43423;46.510;6.686;2023-11-21T03:21:36;96015.88;;;8.58;100.00
57594;BME280;43423;46.510;6.686;2023-11-21T03:24:03;96013.97;;;8.64;100.00
57594;BME280;43423;46.510;6.686;2023-11-21T03:26:28;96016.72;;;8.64;100.00
57594;BME280;43423;46.510;6.686;2023-11-21T03:28:55;96018.44;;;8.47;100.00
57594;BME280;43423;46.510;6.686;2023-11-21T03:31:21;96014.72;;;8.65;100.00
57594;BME280;43423;46.510;6.686;2023-11-21T03:33:46;96023.94;;;8.47;100.00
57594;BME280;43423;46.510;6.686;2023-11-21T03:36:12;96014.47;;;8.48;100.00
57594;BME280;43423;46.510;6.686;2023-11-21T03:38:40;96012.28;;;8.52;100.00
57594;BME280;43423;46.510;6.686;2023-11-21T03:41:07;96013.50;;;8.51;100.00
57594;BME280;43423;46.510;6.686;2023-11-21T03:43:32;96015.59;;;8.56;100.00
57594;BME280;43423;46.510;6.686;2023-11-21T03:45:58;96012.06;;;8.71;100.00
57594;BME280;43423;46.510;6.686;2023-11-21T03:48:23;96017.03;;;8.37;100.00
57594;BME280;43423;46.510;6.686;2023-11-21T03:50:49;96022.59;;;8.43;100.00
57594;BME280;43423;46.510;6.686;2023-11-21T03:53:15;96017.19;;;8.63;100.00
57594;BME280;43423;46.510;6.686;2023-11-21T03:55:40;96016.19;;;8.31;100.00
57594;BME280;43423;46.510;6.686;2023-11-21T03:58:06;96021.75;;;8.36;100.00
57594;BME280;43423;46.510;6.686;2023-11-21T04:00:31;96013.44;;;8.31;100.00
57594;BME280;43423;46.510;6.686;2023-11-21T04:02:57;96019.84;;;8.57;100.00
57594;BME280;43423;46.510;6.686;2023-11-21T04:05:23;96026.81;;;8.58;100.00
57594;BME280;43423;46.510;6.686;2023-11-21T04:07:49;96023.81;;;8.56;100.00
57594;BME280;43423;46.510;6.686;2023-11-21T04:10:15;96015.81;;;8.23;100.00
57594;BME280;43423;46.510;6.686;2023-11-21T04:12:41;96032.13;;;8.32;100.00
57594;BME280;43423;46.510;6.686;2023-11-21T04:15:07;96036.50;;;8.39;100.00
57594;BME280;43423;46.510;6.686;2023-11-21T04:17:34;96030.25;;;8.24;100.00
57594;BME280;43423;46.510;6.686;2023-11-21T04:20:00;96032.72;;;8.22;100.00
57594;BME280;43423;46.510;6.686;2023-11-21T04:22:26;96039.63;;;8.47;100.00
57594;BME280;43423;46.510;6.686;2023-11-21T04:24:51;96040.47;;;8.38;100.00
57594;BME280;43423;46.510;6.686;2023-11-21T04:27:17;96036.97;;;8.23;100.00
57594;BME280;43423;46.510;6.686;2023-11-21T04:29:44;96039.13;;;8.19;100.00
57594;BME280;43423;46.510;6.686;2023-11-21T04:32:10;96044.59;;;8.33;100.00
57594;BME280;43423;46.510;6.686;2023-11-21T04:34:35;96036.66;;;8.50;100.00
57594;BME280;43423;46.510;6.686;2023-11-21T04:37:01;96036.66;;;8.50;100.00
57594;BME280;43423;46.510;6.686;2023-11-21T04:39:28;96040.00;;;8.39;100.00
57594;BME280;43423;46.510;6.686;2023-11-21T04:41:54;96041.75;;;8.72;99.10
57594;BME280;43423;46.510;6.686;2023-11-21T04:44:19;96028.63;;;8.61;98.29
57594;BME280;43423;46.510;6.686;2023-11-21T04:46:45;96034.59;;;8.45;100.00
57594;BME280;43423;46.510;6.686;2023-11-21T04:49:11;96041.22;;;8.53;100.00
57594;BME280;43423;46.510;6.686;2023-11-21T04:51:37;96031.84;;;8.45;100.00
57594;BME280;43423;46.510;6.686;2023-11-21T04:54:02;96042.25;;;8.41;100.00
57594;BME280;43423;46.510;6.686;2023-11-21T04:56:28;96041.75;;;8.28;100.00
57594;BME280;43423;46.510;6.686;2023-11-21T04:58:54;96033.38;;;8.31;100.00
57594;BME280;43423;46.510;6.686;2023-11-21T05:01:20;96031.97;;;8.36;100.00
57594;BME280;43423;46.510;6.686;2023-11-21T05:03:46;96028.47;;;8.35;100.00
57594;BME280;43423;46.510;6.686;2023-11-21T05:06:13;96037.63;;;8.47;100.00
57594;BME280;43423;46.510;6.686;2023-11-21T05:08:39;96030.94;;;8.83;94.34
57594;BME280;43423;46.510;6.686;2023-11-21T05:11:05;96032.88;;;8.62;97.33
57594;BME280;43423;46.510;6.686;2023-11-21T05:13:33;96030.94;;;8.83;94.41
57594;BME280;43423;46.510;6.686;2023-11-21T05:15:59;96035.47;;;8.86;93.73
57594;BME280;43423;46.510;6.686;2023-11-21T05:18:25;96033.97;;;8.85;94.48
57594;BME280;43423;46.510;6.686;2023-11-21T05:20:52;96048.06;;;8.78;95.08
57594;BME280;43423;46.510;6.686;2023-11-21T05:23:19;96039.16;;;8.83;94.61
57594;BME280;43423;46.510;6.686;2023-11-21T05:25:44;96045.84;;;8.97;95.20
57594;BME280;43423;46.510;6.686;2023-11-21T05:28:11;96044.22;;;8.70;95.61
57594;BME280;43423;46.510;6.686;2023-11-21T05:30:37;96046.44;;;8.86;94.58
57594;BME280;43423;46.510;6.686;2023-11-21T05:33:05;96048.94;;;8.70;95.83
57594;BME280;43423;46.510;6.686;2023-11-21T05:35:30;96035.38;;;8.81;95.15
57594;BME280;43423;46.510;6.686;2023-11-21T05:37:56;96043.22;;;8.88;93.19
57594;BME280;43423;46.510;6.686;2023-11-21T05:40:22;96051.59;;;8.64;97.33
57594;BME280;43423;46.510;6.686;2023-11-21T05:42:48;96041.13;;;8.48;100.00
57594;BME280;43423;46.510;6.686;2023-11-21T05:45:14;96044.72;;;8.39;100.00
57594;BME280;43423;46.510;6.686;2023-11-21T05:47:44;96050.72;;;8.28;100.00
57594;BME280;43423;46.510;6.686;2023-11-21T05:50:12;96055.38;;;8.37;100.00
57594;BME280;43423;46.510;6.686;2023-11-21T05:52:44;96053.47;;;8.28;100.00
57594;BME280;43423;46.510;6.686;2023-11-21T05:55:10;96049.41;;;8.24;100.00
57594;BME280;43423;46.510;6.686;2023-11-21T05:57:37;96051.97;;;8.27;100.00
57594;BME280;43423;46.510;6.686;2023-11-21T06:00:05;96049.69;;;8.26;100.00
57594;BME280;43423;46.510;6.686;2023-11-21T06:02:39;96052.53;;;8.17;100.00
57594;BME280;43423;46.510;6.686;2023-11-21T06:05:09;96062.00;;;8.30;100.00
57594;BME280;43423;46.510;6.686;2023-11-21T06:07:35;96061.03;;;8.19;100.00
57594;BME280;43423;46.510;6.686;2023-11-21T06:10:03;96055.16;;;8.11;100.00
57594;BME280;43423;46.510;6.686;2023-11-21T06:12:32;96055.38;;;8.22;100.00
57594;BME280;43423;46.510;6.686;2023-11-21T06:15:02;96050.44;;;8.26;100.00
57594;BME280;43423;46.510;6.686;2023-11-21T06:17:33;96055.56;;;8.19;100.00
57594;BME280;43423;46.510;6.686;2023-11-21T06:20:03;96059.56;;;8.47;100.00
57594;BME280;43423;46.510;6.686;2023-11-21T06:22:38;96057.47;;;8.42;100.00
57594;BME280;43423;46.510;6.686;2023-11-21T06:25:04;96053.78;;;8.16;100.00
57594;BME280;43423;46.510;6.686;2023-11-21T06:27:36;96055.81;;;8.21;100.00
57594;BME280;43423;46.510;6.686;2023-11-21T06:30:03;96054.78;;;8.18;100.00
57594;BME280;43423;46.510;6.686;2023-11-21T06:32:29;96062.91;;;8.27;100.00
57594;BME280;43423;46.510;6.686;2023-11-21T06:34:58;96055.81;;;8.21;100.00
57594;BME280;43423;46.510;6.686;2023-11-21T06:37:27;96062.91;;;8.27;100.00
57594;BME280;43423;46.510;6.686;2023-11-21T06:39:53;96058.03;;;8.31;100.00
57594;BME280;43423;46.510;6.686;2023-11-21T06:42:19;96064.66;;;8.39;100.00
57594;BME280;43423;46.510;6.686;2023-11-21T06:44:45;96074.00;;;8.48;100.00
57594;BME280;43423;46.510;6.686;2023-11-21T06:47:11;96078.97;;;8.20;100.00
57594;BME280;43423;46.510;6.686;2023-11-21T06:49:36;96071.59;;;8.11;100.00
57594;BME280;43423;46.510;6.686;2023-11-21T06:52:04;96069.16;;;7.98;100.00
57594;BME280;43423;46.510;6.686;2023-11-21T06:54:33;96075.94;;;8.03;100.00
57594;BME280;43423;46.510;6.686;2023-11-21T06:56:59;96074.78;;;7.95;100.00
57594;BME280;43423;46.510;6.686;2023-11-21T06:59:25;96081.53;;;8.23;100.00
57594;BME280;43423;46.510;6.686;2023-11-21T07:01:51;96082.19;;;8.18;100.00
57594;BME280;43423;46.510;6.686;2023-11-21T07:04:16;96094.47;;;8.08;100.00
57594;BME280;43423;46.510;6.686;2023-11-21T07:06:43;96090.09;;;8.01;100.00
57594;BME280;43423;46.510;6.686;2023-11-21T07:09:09;96093.03;;;8.27;100.00
57594;BME280;43423;46.510;6.686;2023-11-21T07:11:37;96100.34;;;8.60;100.00
57594;BME280;43423;46.510;6.686;2023-11-21T07:14:04;96102.50;;;8.85;100.00
57594;BME280;43423;46.510;6.686;2023-11-21T07:16:36;96106.81;;;8.92;100.00
57594;BME280;43423;46.510;6.686;2023-11-21T07:19:06;96095.81;;;9.07;100.00
57594;BME280;43423;46.510;6.686;2023-11-21T07:21:33;96096.34;;;8.90;100.00
57594;BME280;43423;46.510;6.686;2023-11-21T07:24:03;96094.47;;;8.67;100.00
57594;BME280;43423;46.510;6.686;2023-11-21T07:26:33;96094.03;;;8.54;100.00
57594;BME280;43423;46.510;6.686;2023-11-21T07:28:59;96096.56;;;8.43;100.00
57594;BME280;43423;46.510;6.686;2023-11-21T07:31:26;96088.47;;;8.48;100.00
57594;BME280;43423;46.510;6.686;2023-11-21T07:33:51;96094.66;;;8.34;100.00
57594;BME280;43423;46.510;6.686;2023-11-21T07:36:19;96102.06;;;8.43;100.00
57594;BME280;43423;46.510;6.686;2023-11-21T07:38:46;96091.69;;;8.47;100.00
57594;BME280;43423;46.510;6.686;2023-11-21T07:41:12;96093.28;;;8.38;100.00
57594;BME280;43423;46.510;6.686;2023-11-21T07:43:41;96098.84;;;8.59;100.00
57594;BME280;43423;46.510;6.686;2023-11-21T07:46:07;96096.78;;;8.54;100.00
57594;BME280;43423;46.510;6.686;2023-11-21T07:48:34;96100.34;;;8.60;100.00
57594;BME280;43423;46.510;6.686;2023-11-21T07:51:03;96106.03;;;8.42;100.00
57594;BME280;43423;46.510;6.686;2023-11-21T07:53:32;96098.84;;;8.59;100.00
57594;BME280;43423;46.510;6.686;2023-11-21T07:56:00;96104.13;;;8.77;100.00
57594;BME280;43423;46.510;6.686;2023-11-21T07:58:27;96110.69;;;9.00;100.00
57594;BME280;43423;46.510;6.686;2023-11-21T08:00:54;96098.81;;;8.74;100.00
57594;BME280;43423;46.510;6.686;2023-11-21T08:03:19;96105.06;;;8.59;100.00
57594;BME280;43423;46.510;6.686;2023-11-21T08:05:45;96109.78;;;8.88;100.00
57594;BME280;43423;46.510;6.686;2023-11-21T08:08:10;96098.34;;;8.60;100.00
57594;BME280;43423;46.510;6.686;2023-11-21T08:10:36;96090.72;;;8.50;100.00
57594;BME280;43423;46.510;6.686;2023-11-21T08:13:02;96101.78;;;8.41;100.00
57594;BME280;43423;46.510;6.686;2023-11-21T08:15:29;96097.44;;;8.49;100.00
57594;BME280;43423;46.510;6.686;2023-11-21T08:17:57;96102.00;;;8.28;100.00
57594;BME280;43423;46.510;6.686;2023-11-21T08:20:24;96099.38;;;8.33;100.00
57594;BME280;43423;46.510;6.686;2023-11-21T08:22:50;96096.94;;;8.35;100.00
57594;BME280;43423;46.510;6.686;2023-11-21T08:25:17;96097.78;;;8.27;100.00
57594;BME280;43423;46.510;6.686;2023-11-21T08:27:45;96098.84;;;8.44;100.00
57594;BME280;43423;46.510;6.686;2023-11-21T08:30:12;96102.25;;;8.39;100.00
57594;BME280;43423;46.510;6.686;2023-11-21T08:32:39;96108.66;;;8.36;100.00
57594;BME280;43423;46.510;6.686;2023-11-21T08:35:05;96101.38;;;8.33;100.00
57594;BME280;43423;46.510;6.686;2023-11-21T08:37:31;96111.03;;;8.43;100.00
57594;BME280;43423;46.510;6.686;2023-11-21T08:39:58;96109.97;;;8.26;100.00
57594;BME280;43423;46.510;6.686;2023-11-21T08:42:27;96105.91;;;8.36;100.00
57594;BME280;43423;46.510;6.686;2023-11-21T08:44:56;96117.53;;;8.60;100.00
57594;BME280;43423;46.510;6.686;2023-11-21T08:47:23;96114.25;;;8.56;100.00
57594;BME280;43423;46.510;6.686;2023-11-21T08:49:50;96114.34;;;8.47;100.00
57594;BME280;43423;46.510;6.686;2023-11-21T08:52:19;96109.03;;;8.58;100.00
57594;BME280;43423;46.510;6.686;2023-11-21T08:54:49;96111.78;;;8.58;100.00
57594;BME280;43423;46.510;6.686;2023-11-21T08:57:22;96112.25;;;8.57;100.00
57594;BME280;43423;46.510;6.686;2023-11-21T08:59:48;96106.38;;;8.79;100.00
57594;BME280;43423;46.510;6.686;2023-11-21T09:02:13;96119.44;;;8.69;100.00
57594;BME280;43423;46.510;6.686;2023-11-21T09:04:39;96110.66;;;8.50;100.00
57594;BME280;43423;46.510;6.686;2023-11-21T09:07:04;96105.66;;;8.49;100.00
57594;BME280;43423;46.510;6.686;2023-11-21T09:09:30;96104.69;;;8.52;100.00
57594;BME280;43423;46.510;6.686;2023-11-21T09:11:56;96113.50;;;8.56;100.00
57594;BME280;43423;46.510;6.686;2023-11-21T09:14:22;96107.91;;;8.65;100.00
57594;BME280;43423;46.510;6.686;2023-11-21T09:16:48;96104.50;;;8.85;100.00
57594;BME280;43423;46.510;6.686;2023-11-21T09:19:16;96101.28;;;8.86;100.00
57594;BME280;43423;46.510;6.686;2023-11-21T09:21:41;96105.19;;;9.00;100.00
57594;BME280;43423;46.510;6.686;2023-11-21T09:24:07;96106.81;;;8.92;100.00
57594;BME280;43423;46.510;6.686;2023-11-21T09:26:34;96111.69;;;9.17;100.00
57594;BME280;43423;46.510;6.686;2023-11-21T09:29:00;96108.66;;;9.15;100.00
57594;BME280;43423;46.510;6.686;2023-11-21T09:31:27;96118.34;;;9.11;100.00
57594;BME280;43423;46.510;6.686;2023-11-21T09:33:53;96116.75;;;9.04;100.00
57594;BME280;43423;46.510;6.686;2023-11-21T09:36:18;96128.88;;;8.83;100.00
57594;BME280;43423;46.510;6.686;2023-11-21T09:38:44;96126.13;;;8.83;100.00
57594;BME280;43423;46.510;6.686;2023-11-21T09:41:23;96127.63;;;8.84;100.00
57594;BME280;43423;46.510;6.686;2023-11-21T09:43:54;96124.88;;;8.99;100.00
57594;BME280;43423;46.510;6.686;2023-11-21T09:46:23;96120.63;;;8.98;100.00
57594;BME280;43423;46.510;6.686;2023-11-21T09:48:51;96124.13;;;8.98;100.00
57594;BME280;43423;46.510;6.686;2023-11-21T09:51:19;96119.41;;;9.54;100.00
57594;BME280;43423;46.510;6.686;2023-11-21T09:53:49;96119.00;;;9.41;100.00
57594;BME280;43423;46.510;6.686;2023-11-21T09:56:17;96123.78;;;9.26;100.00
57594;BME280;43423;46.510;6.686;2023-11-21T09:58:53;96121.44;;;9.18;100.00
57594;BME280;43423;46.510;6.686;2023-11-21T10:01:19;96119.69;;;9.36;100.00
57594;BME280;43423;46.510;6.686;2023-11-21T10:03:46;96124.19;;;9.18;100.00
57594;BME280;43423;46.510;6.686;2023-11-21T10:06:13;96124.84;;;9.13;100.00
57594;BME280;43423;46.510;6.686;2023-11-21T10:08:42;96126.22;;;9.59;100.00
57594;BME280;43423;46.510;6.686;2023-11-21T10:11:08;96122.84;;;9.49;100.00
57594;BME280;43423;46.510;6.686;2023-11-21T10:13:37;96118.09;;;9.29;100.00
57594;BME280;43423;46.510;6.686;2023-11-21T10:16:04;96118.19;;;9.35;100.00
57594;BME280;43423;46.510;6.686;2023-11-21T10:18:32;96113.78;;;9.43;100.00
57594;BME280;43423;46.510;6.686;2023-11-21T10:20:59;96120.69;;;9.18;100.00
57594;BME280;43423;46.510;6.686;2023-11-21T10:23:27;96112.38;;;9.12;100.00
57594;BME280;43423;46.510;6.686;2023-11-21T10:25:53;96119.31;;;9.28;100.00
57594;BME280;43423;46.510;6.686;2023-11-21T10:28:20;96116.88;;;9.50;100.00
57594;BME280;43423;46.510;6.686;2023-11-21T10:30:46;96106.63;;;9.31;100.00
57594;BME280;43423;46.510;6.686;2023-11-21T10:33:12;96116.66;;;9.54;100.00
57594;BME280;43423;46.510;6.686;2023-11-21T10:35:48;96121.00;;;9.81;99.44
57594;BME280;43423;46.510;6.686;2023-11-21T10:38:20;96113.56;;;9.46;100.00
57594;BME280;43423;46.510;6.686;2023-11-21T10:40:48;96107.09;;;9.64;100.00
57594;BME280;43423;46.510;6.686;2023-11-21T10:43:15;96104.88;;;9.68;99.39
57594;BME280;43423;46.510;6.686;2023-11-21T10:45:41;96105.56;;;9.63;99.82
57594;BME280;43423;46.510;6.686;2023-11-21T10:48:09;96103.22;;;9.97;99.21
57594;BME280;43423;46.510;6.686;2023-11-21T10:50:36;96105.75;;;10.00;98.45
57594;BME280;43423;46.510;6.686;2023-11-21T10:53:06;96105.00;;;10.00;98.66
57594;BME280;43423;46.510;6.686;2023-11-21T10:55:32;96111.03;;;10.04;97.55
57594;BME280;43423;46.510;6.686;2023-11-21T10:58:00;96116.88;;;9.91;98.54
57594;BME280;43423;46.510;6.686;2023-11-21T11:00:28;96117.66;;;10.18;97.45
57594;BME280;43423;46.510;6.686;2023-11-21T11:02:54;96112.53;;;10.25;94.12
57594;BME280;43423;46.510;6.686;2023-11-21T11:05:22;96116.31;;;9.87;97.32
57594;BME280;43423;46.510;6.686;2023-11-21T11:10:26;96111.59;;;9.88;99.26
57594;BME280;43423;46.510;6.686;2023-11-21T11:12:56;96103.84;;;9.86;98.78
57594;BME280;43423;46.510;6.686;2023-11-21T11:15:23;96105.00;;;10.00;95.92
57594;BME280;43423;46.510;6.686;2023-11-21T11:17:50;96098.22;;;9.95;96.44
57594;BME280;43423;46.510;6.686;2023-11-21T11:20:16;96099.41;;;10.15;96.02
57594;BME280;43423;46.510;6.686;2023-11-21T11:23:23;96096.88;;;10.11;94.92
57594;BME280;43423;46.510;6.686;2023-11-21T11:26:09;96094.44;;;10.19;94.98
57594;BME280;43423;46.510;6.686;2023-11-21T11:29:39;96097.63;;;10.12;93.90
57594;BME280;43423;46.510;6.686;2023-11-21T11:32:07;96093.59;;;10.90;90.42
57594;BME280;43423;46.510;6.686;2023-11-21T11:34:50;96091.81;;;10.87;85.11
57594;BME280;43423;46.510;6.686;2023-11-21T11:37:19;96092.63;;;11.36;80.92
57594;BME280;43423;46.510;6.686;2023-11-21T11:39:46;96094.03;;;11.69;79.97
57594;BME280;43423;46.510;6.686;2023-11-21T11:42:13;96090.28;;;12.71;74.75
57594;BME280;43423;46.510;6.686;2023-11-21T11:47:22;96095.22;;;13.56;71.18
57594;BME280;43423;46.510;6.686;2023-11-21T11:50:07;96095.50;;;13.47;73.45
57594;BME280;43423;46.510;6.686;2023-11-21T11:52:45;96090.25;;;13.27;71.84
57594;BME280;43423;46.510;6.686;2023-11-21T11:55:13;96099.56;;;12.79;74.37
57594;BME280;43423;46.510;6.686;2023-11-21T11:57:41;96090.25;;;12.26;75.94
57594;BME280;43423;46.510;6.686;2023-11-21T12:00:33;96085.44;;;12.10;79.77
57594;BME280;43423;46.510;6.686;2023-11-21T12:03:03;96083.50;;;12.33;77.87
57594;BME280;43423;46.510;6.686;2023-11-21T12:05:31;96090.41;;;12.00;79.30
57594;BME280;43423;46.510;6.686;2023-11-21T12:08:11;96084.22;;;11.57;81.94
57594;BME280;43423;46.510;6.686;2023-11-21T12:10:38;96085.69;;;11.46;83.24
57594;BME280;43423;46.510;6.686;2023-11-21T12:13:08;96086.66;;;11.38;83.09
57594;BME280;43423;46.510;6.686;2023-11-21T12:15:36;96087.75;;;11.14;83.20
57594;BME280;43423;46.510;6.686;2023-11-21T12:18:02;96083.81;;;10.89;86.13
57594;BME280;43423;46.510;6.686;2023-11-21T12:20:30;96086.63;;;10.63;84.24
57594;BME280;43423;46.510;6.686;2023-11-21T12:22:57;96096.47;;;10.44;87.99
57594;BME280;43423;46.510;6.686;2023-11-21T12:25:27;96091.03;;;10.81;90.63
57594;BME280;43423;46.510;6.686;2023-11-21T12:27:55;96087.25;;;10.79;91.88
57594;BME280;43423;46.510;6.686;2023-11-21T12:30:23;96094.31;;;10.54;91.73
57594;BME280;43423;46.510;6.686;2023-11-21T12:32:51;96110.16;;;10.18;95.23
57594;BME280;43423;46.510;6.686;2023-11-21T12:35:24;96102.16;;;10.15;94.23
57594;BME280;43423;46.510;6.686;2023-11-21T12:37:51;96106.22;;;10.45;96.61
57594;BME280;43423;46.510;6.686;2023-11-21T12:40:18;96092.03;;;10.26;95.07
57594;BME280;43423;46.510;6.686;2023-11-21T12:42:53;96093.69;;;10.18;96.63
57594;BME280;43423;46.510;6.686;2023-11-21T12:45:24;96093.47;;;10.22;96.49
57594;BME280;43423;46.510;6.686;2023-11-21T12:48:04;96094.25;;;10.22;95.74
57594;BME280;43423;46.510;6.686;2023-11-21T12:50:34;96087.41;;;10.12;94.92
57594;BME280;43423;46.510;6.686;2023-11-21T12:53:12;96085.22;;;9.96;95.39
57594;BME280;43423;46.510;6.686;2023-11-21T12:55:38;96093.16;;;10.14;94.98
57594;BME280;43423;46.510;6.686;2023-11-21T12:58:06;96099.19;;;10.18;90.80
57594;BME280;43423;46.510;6.686;2023-11-21T13:00:45;96094.88;;;10.12;94.69
57594;BME280;43423;46.510;6.686;2023-11-21T13:03:12;96103.91;;;10.18;94.83
57594;BME280;43423;46.510;6.686;2023-11-21T13:05:43;96104.00;;;10.03;97.22
57594;BME280;43423;46.510;6.686;2023-11-21T13:08:16;96114.22;;;9.76;96.30
57594;BME280;43423;46.510;6.686;2023-11-21T13:10:46;96106.63;;;10.12;97.50